createdAt,value
2023-05-01T00:01:58.807Z,60.62
2023-05-01T00:04:27.454Z,60.89
2023-05-01T00:06:56.280Z,60.51
2023-05-01T00:09:24.962Z,60.53
2023-05-01T00:11:53.699Z,60.93
2023-05-01T00:14:22.594Z,60.70
2023-05-01T00:16:51.616Z,60.96
2023-05-01T00:19:20.241Z,60.84
2023-05-01T00:21:49.457Z,60.53
2023-05-01T00:24:18.551Z,60.64
2023-05-01T00:26:47.380Z,60.99
2023-05-01T00:29:16.150Z,60.95
2023-05-01T00:31:46.385Z,60.82
2023-05-01T00:34:15.248Z,60.65
2023-05-01T00:36:44.283Z,60.58
2023-05-01T00:39:13.891Z,60.53
2023-05-01T00:41:42.657Z,60.34
2023-05-01T00:44:11.423Z,60.35
2023-05-01T00:46:40.365Z,60.19
2023-05-01T00:49:09.065Z,60.27
2023-05-01T00:51:38.080Z,60.14
2023-05-01T00:54:07.145Z,60.12
2023-05-01T00:56:36.005Z,59.91
2023-05-01T00:59:05.782Z,60.01
2023-05-01T01:01:35.424Z,59.81
2023-05-01T01:04:04.553Z,59.75
2023-05-01T01:06:42.854Z,59.35
2023-05-01T01:09:38.750Z,59.66
2023-05-01T01:12:21.742Z,59.43
2023-05-01T01:15:04.790Z,59.07
2023-05-01T01:17:51.735Z,59.04
2023-05-01T01:20:47.693Z,55.28
2023-05-01T01:23:29.027Z,52.51
2023-05-01T01:26:14.720Z,49.58
2023-05-01T01:28:55.558Z,47.81
2023-05-01T01:31:51.718Z,46.14
2023-05-01T01:34:56.417Z,44.79
2023-05-01T01:37:55.257Z,43.63
2023-05-01T01:40:30.480Z,43.50
2023-05-01T01:43:08.540Z,41.93
2023-05-01T01:45:48.017Z,41.75
2023-05-01T01:48:27.441Z,42.25
2023-05-01T01:51:00.000Z,41.60
2023-05-01T01:53:32.123Z,41.04
2023-05-01T01:56:03.941Z,41.06
2023-05-01T01:58:36.321Z,41.54
2023-05-01T02:01:07.113Z,40.89
2023-05-01T02:03:38.066Z,40.81
2023-05-01T02:06:08.626Z,41.04
2023-05-01T02:08:39.529Z,41.25
2023-05-01T02:11:10.545Z,41.62
2023-05-01T02:13:41.889Z,41.76
2023-05-01T02:16:12.364Z,41.08
2023-05-01T02:18:42.560Z,41.42
2023-05-01T02:21:13.282Z,41.38
2023-05-01T02:23:42.544Z,40.45
2023-05-01T02:26:17.919Z,41.51
2023-05-01T02:28:46.836Z,41.46
2023-05-01T02:31:15.726Z,41.97
2023-05-01T02:33:44.493Z,41.63
2023-05-01T02:36:14.205Z,42.04
2023-05-01T02:38:44.084Z,42.02
2023-05-01T02:41:16.284Z,42.28
2023-05-01T02:43:48.125Z,42.16
2023-05-01T02:46:18.548Z,41.90
2023-05-01T02:48:50.180Z,42.52
2023-05-01T02:51:20.824Z,42.32
2023-05-01T02:53:50.047Z,42.68
2023-05-01T02:56:23.704Z,42.58
2023-05-01T02:58:52.496Z,42.84
2023-05-01T03:01:21.692Z,42.90
2023-05-01T03:03:50.502Z,42.24
2023-05-01T03:06:20.296Z,42.46
2023-05-01T03:08:49.306Z,42.89
2023-05-01T03:11:18.105Z,41.66
2023-05-01T03:13:48.337Z,42.16
2023-05-01T03:16:17.968Z,41.63
2023-05-01T03:18:49.508Z,41.45
2023-05-01T03:21:19.002Z,41.60
2023-05-01T03:23:47.784Z,40.82
2023-05-01T03:26:17.049Z,41.03
2023-05-01T03:28:45.808Z,41.12
2023-05-01T03:31:15.151Z,41.01
2023-05-01T03:33:44.024Z,41.13
2023-05-01T03:36:12.708Z,40.87
2023-05-01T03:38:41.657Z,40.49
2023-05-01T03:41:11.001Z,40.75
2023-05-01T03:43:58.129Z,39.63
2023-05-01T03:46:34.923Z,40.62
2023-05-01T03:49:04.634Z,40.19
2023-05-01T03:51:39.566Z,40.00
2023-05-01T03:54:08.782Z,40.12
2023-05-01T03:56:52.504Z,39.18
2023-05-01T03:59:22.243Z,38.86
2023-05-01T04:01:51.407Z,38.62
2023-05-01T04:04:20.305Z,37.85
2023-05-01T04:06:56.488Z,38.00
2023-05-01T04:09:25.449Z,37.23
2023-05-01T04:11:54.270Z,38.17
2023-05-01T04:14:23.070Z,37.82
2023-05-01T04:16:52.003Z,37.60
2023-05-01T04:19:20.944Z,37.61
2023-05-01T04:21:56.302Z,37.29
2023-05-01T04:24:24.987Z,38.57
2023-05-01T04:26:53.722Z,37.12
2023-05-01T04:29:22.661Z,37.07
2023-05-01T04:31:51.470Z,36.07
2023-05-01T04:34:21.481Z,35.83
2023-05-01T04:36:50.418Z,35.58
2023-05-01T04:39:19.337Z,35.19
2023-05-01T04:41:48.121Z,34.62
2023-05-01T04:44:17.367Z,35.48
2023-05-01T04:46:46.854Z,34.86
2023-05-01T04:49:15.677Z,34.71
2023-05-01T04:51:44.264Z,33.48
2023-05-01T04:54:16.026Z,33.17
2023-05-01T04:56:45.357Z,33.90
2023-05-01T04:59:14.386Z,33.52
2023-05-01T05:01:43.198Z,33.21
2023-05-01T05:04:12.336Z,33.75
2023-05-01T05:06:41.252Z,32.65
2023-05-01T05:09:18.065Z,32.69
2023-05-01T05:11:49.029Z,32.08
2023-05-01T05:14:22.940Z,31.61
2023-05-01T05:16:52.481Z,31.62
2023-05-01T05:19:21.497Z,30.94
2023-05-01T05:21:50.240Z,30.30
2023-05-01T05:24:19.640Z,30.78
2023-05-01T05:26:49.867Z,30.83
2023-05-01T05:29:18.780Z,30.84
2023-05-01T05:31:47.996Z,30.08
2023-05-01T05:34:19.559Z,29.89
2023-05-01T05:36:48.165Z,29.69
2023-05-01T05:39:19.130Z,29.94
2023-05-01T05:41:49.921Z,29.84
2023-05-01T05:44:21.677Z,30.14
2023-05-01T05:46:50.476Z,28.90
2023-05-01T05:49:28.917Z,28.75
2023-05-01T05:51:57.695Z,28.72
2023-05-01T05:54:26.699Z,27.92
2023-05-01T05:56:55.616Z,27.59
2023-05-01T05:59:27.379Z,28.22
2023-05-01T06:01:56.103Z,27.38
2023-05-01T06:04:25.758Z,27.20
2023-05-01T06:06:58.464Z,26.99
2023-05-01T06:09:27.478Z,27.33
2023-05-01T06:11:56.339Z,27.19
2023-05-01T06:14:25.150Z,27.28
2023-05-01T06:16:54.007Z,27.15
2023-05-01T06:19:22.844Z,26.72
2023-05-01T06:21:56.590Z,26.11
2023-05-01T06:24:25.649Z,26.56
2023-05-01T06:26:59.654Z,25.88
2023-05-01T06:29:30.439Z,25.84
2023-05-01T06:31:59.132Z,25.77
2023-05-01T06:34:28.302Z,26.10
2023-05-01T06:36:57.886Z,26.23
2023-05-01T06:39:27.208Z,26.05
2023-05-01T06:41:56.445Z,25.39
2023-05-01T06:44:33.425Z,25.29
2023-05-01T06:47:03.629Z,25.80
2023-05-01T06:49:32.494Z,26.26
2023-05-01T06:52:05.219Z,26.23
2023-05-01T06:54:34.545Z,25.83
2023-05-01T06:57:03.359Z,26.13
2023-05-01T06:59:32.145Z,25.35
2023-05-01T07:02:00.975Z,25.53
2023-05-01T07:04:29.726Z,24.95
2023-05-01T07:06:58.588Z,25.52
2023-05-01T07:09:27.407Z,25.13
2023-05-01T07:11:57.706Z,24.72
2023-05-01T07:14:26.786Z,24.15
2023-05-01T07:16:56.200Z,24.51
2023-05-01T07:19:25.313Z,24.63
2023-05-01T07:21:54.680Z,25.13
2023-05-01T07:24:23.585Z,24.26
2023-05-01T07:26:52.589Z,24.87
2023-05-01T07:29:21.556Z,25.29
2023-05-01T07:31:50.496Z,25.30
2023-05-01T07:34:20.373Z,25.22
2023-05-01T07:36:48.999Z,25.03
2023-05-01T07:39:18.568Z,25.68
2023-05-01T07:41:48.227Z,25.73
2023-05-01T07:44:17.061Z,25.49
2023-05-01T07:46:46.651Z,25.51
2023-05-01T07:49:15.247Z,25.41
2023-05-01T07:51:45.605Z,25.16
2023-05-01T07:54:16.435Z,25.02
2023-05-01T07:56:48.585Z,24.58
2023-05-01T07:59:18.647Z,25.51
2023-05-01T08:01:47.950Z,25.53
2023-05-01T08:04:17.983Z,26.38
2023-05-01T08:06:48.227Z,25.97
2023-05-01T08:09:17.884Z,25.77
2023-05-01T08:11:46.888Z,26.15
2023-05-01T08:14:18.307Z,25.69
2023-05-01T08:16:47.219Z,25.72
2023-05-01T08:19:16.108Z,24.93
2023-05-01T08:21:44.809Z,25.41
2023-05-01T08:24:13.568Z,25.02
2023-05-01T08:26:42.657Z,25.08
2023-05-01T08:29:11.769Z,25.36
2023-05-01T08:31:40.669Z,25.34
2023-05-01T08:34:09.900Z,25.24
2023-05-01T08:36:39.354Z,24.62
2023-05-01T08:39:08.236Z,25.16
2023-05-01T08:41:39.198Z,25.03
2023-05-01T08:44:11.872Z,24.53
2023-05-01T08:47:21.022Z,25.60
2023-05-01T08:49:53.377Z,25.79
2023-05-01T08:52:24.145Z,24.90
2023-05-01T08:55:00.327Z,25.17
2023-05-01T08:57:31.644Z,24.81
2023-05-01T09:00:01.614Z,23.47
2023-05-01T09:02:32.264Z,24.22
2023-05-01T09:05:04.710Z,23.92
2023-05-01T09:07:33.403Z,23.13
2023-05-01T09:10:02.664Z,23.96
2023-05-01T09:12:36.164Z,23.90
2023-05-01T09:15:05.895Z,24.47
2023-05-01T09:17:37.707Z,24.03
2023-05-01T09:20:08.284Z,24.46
2023-05-01T09:22:37.685Z,24.37
2023-05-01T09:25:09.191Z,23.62
2023-05-01T09:27:39.270Z,24.39
2023-05-01T09:30:09.888Z,24.35
2023-05-01T09:35:15.433Z,22.76
2023-05-01T09:37:50.447Z,22.99
2023-05-01T09:40:19.301Z,23.21
2023-05-01T09:42:53.502Z,22.88
2023-05-01T09:45:24.285Z,22.90
2023-05-01T09:47:53.269Z,23.25
2023-05-01T09:50:35.937Z,23.30
2023-05-01T09:53:07.365Z,23.35
2023-05-01T09:55:37.267Z,24.25
2023-05-01T09:58:06.767Z,24.10
2023-05-01T10:00:50.420Z,24.61
2023-05-01T10:03:22.922Z,25.00
2023-05-01T10:05:51.832Z,24.21
2023-05-01T10:08:20.856Z,23.63
2023-05-01T10:11:09.081Z,23.69
2023-05-01T10:13:38.654Z,24.33
2023-05-01T10:16:09.462Z,23.93
2023-05-01T10:18:38.842Z,25.02
2023-05-01T10:21:11.075Z,24.51
2023-05-01T10:23:39.888Z,24.50
2023-05-01T10:26:09.979Z,24.40
2023-05-01T10:28:39.393Z,24.83
2023-05-01T10:31:14.048Z,24.85
2023-05-01T10:33:44.885Z,25.34
2023-05-01T10:36:26.227Z,25.15
2023-05-01T10:38:55.790Z,25.09
2023-05-01T10:42:01.056Z,24.63
2023-05-01T10:44:30.537Z,25.28
2023-05-01T10:47:00.004Z,24.84
2023-05-01T10:50:11.087Z,25.03
2023-05-01T10:53:14.107Z,25.67
2023-05-01T10:55:45.459Z,25.33
2023-05-01T10:58:16.057Z,25.51
2023-05-01T11:00:44.686Z,25.06
2023-05-01T11:03:24.246Z,25.64
2023-05-01T11:06:06.284Z,25.69
2023-05-01T11:08:40.530Z,25.20
2023-05-01T11:11:22.188Z,25.71
2023-05-01T11:14:00.740Z,25.84
2023-05-01T11:16:39.086Z,25.08
2023-05-01T11:19:10.837Z,25.86
2023-05-01T11:21:41.518Z,26.25
2023-05-01T11:24:11.128Z,26.35
2023-05-01T11:26:41.810Z,26.54
2023-05-01T11:29:12.388Z,26.76
2023-05-01T11:31:41.156Z,26.58
2023-05-01T11:34:10.632Z,26.37
2023-05-01T11:36:50.519Z,26.81
2023-05-01T11:39:21.148Z,26.74
2023-05-01T11:41:50.226Z,26.74
2023-05-01T11:44:19.786Z,25.79
2023-05-01T11:47:02.206Z,26.30
2023-05-01T11:49:31.427Z,26.61
2023-05-01T11:52:00.940Z,26.47
2023-05-01T11:54:30.598Z,26.33
2023-05-01T11:57:02.765Z,26.06
2023-05-01T11:59:31.798Z,25.94
2023-05-01T12:02:00.937Z,25.45
2023-05-01T12:04:32.245Z,25.62
2023-05-01T12:07:01.811Z,24.78
2023-05-01T12:09:31.309Z,24.95
2023-05-01T12:12:03.041Z,25.52
2023-05-01T12:14:32.461Z,25.67
2023-05-01T12:17:03.285Z,25.68
2023-05-01T12:19:33.177Z,26.17
2023-05-01T12:22:09.931Z,26.18
2023-05-01T12:24:39.259Z,27.13
2023-05-01T12:27:10.043Z,26.46
2023-05-01T12:29:42.791Z,26.93
2023-05-01T12:32:12.598Z,27.50
2023-05-01T12:34:43.234Z,27.30
2023-05-01T12:37:12.756Z,27.62
2023-05-01T12:39:45.507Z,27.94
2023-05-01T12:42:16.007Z,27.98
2023-05-01T12:44:45.583Z,27.65
2023-05-01T12:47:15.452Z,28.24
2023-05-01T12:49:44.729Z,27.56
2023-05-01T12:52:14.260Z,28.26
2023-05-01T12:54:45.351Z,28.30
2023-05-01T12:57:16.896Z,28.13
2023-05-01T12:59:48.237Z,28.04
2023-05-01T13:02:19.600Z,27.94
2023-05-01T13:04:52.555Z,28.40
2023-05-01T13:07:22.570Z,28.75
2023-05-01T13:09:55.774Z,28.38
2023-05-01T13:12:27.758Z,28.96
2023-05-01T13:14:58.449Z,28.94
2023-05-01T13:17:34.623Z,28.85
2023-05-01T13:20:06.872Z,28.82
2023-05-01T13:22:38.217Z,29.26
2023-05-01T13:25:17.298Z,29.36
2023-05-01T13:27:54.675Z,30.17
2023-05-01T13:30:33.776Z,29.63
2023-05-01T13:33:06.645Z,29.93
2023-05-01T13:35:37.010Z,29.68
2023-05-01T13:38:14.019Z,29.92
2023-05-01T13:40:43.571Z,29.56
2023-05-01T13:43:18.603Z,29.70
2023-05-01T13:45:48.729Z,30.01
2023-05-01T13:48:19.821Z,29.61
2023-05-01T13:50:49.191Z,30.45
2023-05-01T13:53:18.281Z,30.77
2023-05-01T13:55:47.496Z,30.56
2023-05-01T13:58:16.479Z,30.66
2023-05-01T14:00:47.061Z,30.71
2023-05-01T14:03:17.324Z,31.00
2023-05-01T14:05:48.394Z,31.95
2023-05-01T14:08:22.185Z,32.69
2023-05-01T14:10:51.193Z,32.91
2023-05-01T14:13:23.310Z,33.70
2023-05-01T14:15:53.091Z,33.39
2023-05-01T14:18:22.930Z,33.84
2023-05-01T14:20:52.291Z,34.03
2023-05-01T14:23:25.572Z,34.24
2023-05-01T14:25:55.812Z,34.38
2023-05-01T14:28:25.170Z,34.82
2023-05-01T14:30:55.905Z,34.47
2023-05-01T14:33:27.172Z,35.19
2023-05-01T14:35:56.616Z,35.41
2023-05-01T14:38:28.679Z,35.86
2023-05-01T14:40:58.550Z,36.79
2023-05-01T14:43:29.061Z,37.65
2023-05-01T14:45:58.249Z,38.05
2023-05-01T14:48:36.310Z,38.22
2023-05-01T14:51:14.098Z,38.45
2023-05-01T14:53:43.862Z,38.29
2023-05-01T14:56:13.917Z,38.59
2023-05-01T14:58:43.251Z,39.28
2023-05-01T15:01:12.740Z,39.34
2023-05-01T15:03:42.607Z,39.49
2023-05-01T15:06:12.490Z,39.69
2023-05-01T15:08:41.665Z,40.16
2023-05-01T15:11:10.571Z,39.79
2023-05-01T15:13:40.968Z,39.99
2023-05-01T15:16:14.734Z,40.41
2023-05-01T15:18:44.035Z,40.18
2023-05-01T15:21:14.161Z,40.65
2023-05-01T15:23:45.936Z,40.76
2023-05-01T15:26:15.208Z,41.55
2023-05-01T15:28:44.924Z,41.14
2023-05-01T15:31:14.200Z,41.15
2023-05-01T15:33:43.703Z,41.33
2023-05-01T15:36:13.248Z,41.46
2023-05-01T15:38:42.572Z,41.88
2023-05-01T15:41:11.930Z,42.10
2023-05-01T15:43:40.969Z,42.41
2023-05-01T15:46:09.933Z,42.18
2023-05-01T15:48:39.689Z,42.16
2023-05-01T15:51:09.032Z,42.52
2023-05-01T15:53:38.732Z,42.48
2023-05-01T15:56:11.108Z,44.46
2023-05-01T15:58:41.388Z,44.91
2023-05-01T16:01:12.843Z,45.49
2023-05-01T16:03:47.153Z,46.00
2023-05-01T16:06:17.461Z,45.99
2023-05-01T16:08:46.639Z,46.39
2023-05-01T16:11:16.510Z,46.76
2023-05-01T16:13:48.437Z,47.25
2023-05-01T16:16:24.536Z,47.76
2023-05-01T16:18:58.947Z,47.86
2023-05-01T16:21:31.147Z,48.14
2023-05-01T16:24:03.305Z,48.58
2023-05-01T16:26:32.674Z,48.29
2023-05-01T16:29:04.096Z,48.59
2023-05-01T16:31:42.377Z,48.63
2023-05-01T16:34:15.928Z,48.64
2023-05-01T16:36:46.384Z,49.07
2023-05-01T16:39:20.892Z,48.89
2023-05-01T16:41:52.040Z,48.95
2023-05-01T16:44:23.672Z,49.11
2023-05-01T16:46:58.275Z,49.39
2023-05-01T16:49:28.618Z,49.34
2023-05-01T16:51:59.455Z,49.45
2023-05-01T16:54:37.665Z,49.33
2023-05-01T16:57:07.645Z,49.61
2023-05-01T16:59:39.466Z,49.26
2023-05-01T17:02:08.853Z,49.64
2023-05-01T17:04:38.178Z,49.54
2023-05-01T17:07:06.890Z,49.68
2023-05-01T17:09:36.187Z,49.79
2023-05-01T17:12:06.348Z,49.70
2023-05-01T17:14:35.120Z,49.58
2023-05-01T17:17:09.076Z,50.09
2023-05-01T17:19:42.508Z,50.07
2023-05-01T17:22:12.425Z,49.92
2023-05-01T17:24:42.456Z,49.88
2023-05-01T17:27:11.947Z,49.77
2023-05-01T17:29:42.421Z,50.05
2023-05-01T17:32:13.159Z,49.99
2023-05-01T17:34:44.924Z,49.95
2023-05-01T17:37:14.156Z,50.40
2023-05-01T17:39:43.354Z,50.37
2023-05-01T17:42:12.086Z,49.99
2023-05-01T17:44:41.295Z,50.55
2023-05-01T17:47:10.938Z,50.64
2023-05-01T17:49:39.993Z,50.19
2023-05-01T17:52:09.814Z,50.83
2023-05-01T17:54:39.224Z,50.24
2023-05-01T17:57:08.855Z,50.61
2023-05-01T17:59:37.949Z,50.60
2023-05-01T18:02:07.836Z,50.69
2023-05-01T18:04:39.120Z,51.25
2023-05-01T18:07:08.118Z,50.82
2023-05-01T18:09:37.179Z,51.39
2023-05-01T18:12:06.485Z,51.10
2023-05-01T18:14:35.546Z,51.68
2023-05-01T18:17:05.010Z,51.83
2023-05-01T18:19:34.295Z,51.78
2023-05-01T18:22:05.000Z,52.12
2023-05-01T18:24:34.443Z,52.94
2023-05-01T18:27:03.605Z,51.60
2023-05-01T18:29:33.218Z,51.93
2023-05-01T18:32:02.440Z,52.41
2023-05-01T18:34:31.538Z,52.67
2023-05-01T18:37:00.225Z,53.26
2023-05-01T18:39:29.322Z,52.80
2023-05-01T18:41:57.911Z,52.87
2023-05-01T18:44:27.542Z,53.36
2023-05-01T18:46:56.949Z,53.15
2023-05-01T18:49:25.880Z,52.79
2023-05-01T18:51:55.083Z,53.21
2023-05-01T18:54:24.008Z,53.17
2023-05-01T18:56:52.772Z,53.26
2023-05-01T18:59:22.807Z,53.65
2023-05-01T19:01:52.160Z,54.04
2023-05-01T19:04:21.008Z,53.63
2023-05-01T19:06:50.245Z,54.52
2023-05-01T19:09:19.538Z,54.72
2023-05-01T19:11:48.424Z,55.31
2023-05-01T19:14:17.080Z,54.67
2023-05-01T19:16:45.848Z,55.02
2023-05-01T19:19:14.637Z,54.98
2023-05-01T19:21:43.454Z,55.38
2023-05-01T19:24:12.637Z,55.71
2023-05-01T19:26:41.395Z,56.16
2023-05-01T19:29:10.289Z,56.30
2023-05-01T19:31:39.453Z,56.21
2023-05-01T19:34:08.575Z,56.06
2023-05-01T19:36:37.337Z,56.45
2023-05-01T19:39:08.560Z,56.20
2023-05-01T19:41:37.801Z,56.42
2023-05-01T19:44:06.646Z,56.63
2023-05-01T19:46:35.619Z,56.97
2023-05-01T19:49:05.051Z,57.55
2023-05-01T19:51:33.867Z,57.50
2023-05-01T19:54:05.202Z,57.46
2023-05-01T19:56:33.800Z,57.77
2023-05-01T19:59:02.332Z,57.01
2023-05-01T20:01:31.931Z,57.89
2023-05-01T20:04:03.343Z,58.56
2023-05-01T20:06:34.678Z,58.13
2023-05-01T20:09:03.839Z,57.67
2023-05-01T20:11:32.926Z,57.46
2023-05-01T20:14:02.762Z,58.10
2023-05-01T20:16:32.100Z,58.31
2023-05-01T20:19:01.030Z,58.53
2023-05-01T20:21:29.880Z,58.52
2023-05-01T20:23:58.917Z,58.72
2023-05-01T20:26:28.267Z,58.79
2023-05-01T20:28:57.382Z,59.32
2023-05-01T20:31:26.103Z,59.47
2023-05-01T20:33:54.700Z,59.63
2023-05-01T20:36:25.340Z,59.08
2023-05-01T20:38:54.780Z,59.36
2023-05-01T20:41:24.577Z,59.60
2023-05-01T20:43:53.341Z,59.34
2023-05-01T20:46:23.577Z,59.81
2023-05-01T20:48:52.769Z,60.08
2023-05-01T20:51:21.659Z,60.12
2023-05-01T20:53:51.070Z,60.13
2023-05-01T20:56:20.200Z,60.20
2023-05-01T20:58:49.067Z,60.74
2023-05-01T21:01:17.857Z,60.58
2023-05-01T21:03:49.512Z,60.84
2023-05-01T21:06:18.356Z,61.16
2023-05-01T21:08:47.982Z,61.68
2023-05-01T21:11:17.289Z,61.34
2023-05-01T21:13:48.153Z,61.64
2023-05-01T21:16:19.652Z,61.74
2023-05-01T21:18:49.415Z,61.19
2023-05-01T21:21:18.364Z,61.64
2023-05-01T21:23:49.744Z,61.56
2023-05-01T21:26:20.477Z,61.83
2023-05-01T21:28:49.700Z,61.31
2023-05-01T21:31:18.383Z,61.73
2023-05-01T21:33:49.358Z,60.62
2023-05-01T21:36:18.973Z,60.85
2023-05-01T21:38:48.032Z,60.74
2023-05-01T21:41:17.068Z,61.37
2023-05-01T21:43:45.930Z,61.13
2023-05-01T21:46:19.155Z,61.54
2023-05-01T21:48:55.034Z,61.35
2023-05-01T21:51:32.938Z,60.79
2023-05-01T21:54:02.900Z,61.61
2023-05-01T21:56:32.080Z,61.90
2023-05-01T21:59:06.677Z,61.31
2023-05-01T22:01:35.559Z,61.56
2023-05-01T22:04:04.571Z,61.46
2023-05-01T22:06:33.880Z,61.21
2023-05-01T22:09:02.437Z,61.99
2023-05-01T22:11:33.982Z,61.53
2023-05-01T22:14:03.005Z,61.93
2023-05-01T22:16:31.746Z,62.23
2023-05-01T22:19:01.209Z,61.61
2023-05-01T22:21:32.129Z,62.16
2023-05-01T22:24:00.876Z,62.31
2023-05-01T22:26:29.640Z,62.23
2023-05-01T22:28:58.362Z,62.64
2023-05-01T22:31:27.153Z,62.59
2023-05-01T22:33:56.125Z,62.86
2023-05-01T22:36:25.269Z,63.31
2023-05-01T22:38:54.047Z,62.42
2023-05-01T22:41:22.929Z,62.96
2023-05-01T22:43:53.929Z,63.50
2023-05-01T22:46:23.742Z,63.17
2023-05-01T22:48:52.637Z,62.93
2023-05-01T22:51:21.487Z,62.98
2023-05-01T22:53:50.511Z,62.80
2023-05-01T22:56:19.369Z,63.62
2023-05-01T22:58:48.867Z,63.80
2023-05-01T23:01:17.695Z,63.94
2023-05-01T23:03:46.755Z,63.69
2023-05-01T23:06:15.885Z,63.45
2023-05-01T23:08:44.668Z,64.30
2023-05-01T23:11:17.302Z,63.93
2023-05-01T23:13:49.146Z,64.18
2023-05-01T23:16:18.887Z,63.57
2023-05-01T23:18:47.862Z,64.02
2023-05-01T23:21:19.051Z,64.46
2023-05-01T23:23:48.494Z,63.80
2023-05-01T23:26:26.153Z,64.21
2023-05-01T23:28:55.241Z,64.60
2023-05-01T23:31:28.305Z,64.25
2023-05-01T23:33:57.766Z,64.46
2023-05-01T23:36:27.068Z,64.98
2023-05-01T23:38:55.962Z,64.89
2023-05-01T23:41:25.731Z,64.45
2023-05-01T23:43:54.610Z,64.59
2023-05-01T23:46:23.516Z,63.68
2023-05-01T23:48:53.024Z,63.64
2023-05-01T23:51:22.008Z,63.72
2023-05-01T23:53:50.711Z,64.17
2023-05-01T23:56:19.628Z,65.27
2023-05-01T23:58:48.425Z,65.53
